sensor_id;sensor_type;location;lat;lon;timestamp;pressure;altitude;pressure_sealevel;temperature;humidity
60258;BME280;46115;44.484;11.314;2022-07-29T00:03:32;100173.66;;;23.60;69.48
60258;BME280;46115;44.484;11.314;2022-07-29T00:07:35;100152.22;;;23.67;68.80
60258;BME280;46115;44.484;11.314;2022-07-29T00:11:37;100160.59;;;23.48;69.76
60258;BME280;46115;44.484;11.314;2022-07-29T00:15:41;100165.38;;;23.86;68.57
60258;BME280;46115;44.484;11.314;2022-07-29T00:19:44;100163.97;;;23.50;69.83
60258;BME280;46115;44.484;11.314;2022-07-29T00:23:46;100162.84;;;23.60;69.22
60258;BME280;46115;44.484;11.314;2022-07-29T00:27:48;100178.72;;;23.21;71.02
60258;BME280;46115;44.484;11.314;2022-07-29T00:31:52;100200.88;;;22.99;71.68
60258;BME280;46115;44.484;11.314;2022-07-29T00:35:55;100166.00;;;22.97;70.56
60258;BME280;46115;44.484;11.314;2022-07-29T00:39:57;100204.44;;;23.08;70.94
60258;BME280;46115;44.484;11.314;2022-07-29T00:44:00;100206.28;;;22.99;71.21
60258;BME280;46115;44.484;11.314;2022-07-29T00:48:04;100213.41;;;23.16;69.98
60258;BME280;46115;44.484;11.314;2022-07-29T00:52:09;100219.38;;;23.28;69.48
60258;BME280;46115;44.484;11.314;2022-07-29T00:56:11;100213.06;;;23.11;70.09
60258;BME280;46115;44.484;11.314;2022-07-29T01:00:16;100206.56;;;23.30;69.29
60258;BME280;46115;44.484;11.314;2022-07-29T01:04:21;100201.91;;;23.06;70.54
60258;BME280;46115;44.484;11.314;2022-07-29T01:08:24;100204.09;;;23.02;70.29
60258;BME280;46115;44.484;11.314;2022-07-29T01:12:28;100201.69;;;23.33;69.52
60258;BME280;46115;44.484;11.314;2022-07-29T01:16:41;100193.81;;;22.98;70.63
60258;BME280;46115;44.484;11.314;2022-07-29T01:21:01;100157.41;;;22.94;69.97
60258;BME280;46115;44.484;11.314;2022-07-29T01:25:29;100189.91;;;22.92;70.14
60258;BME280;46115;44.484;11.314;2022-07-29T01:29:39;100182.81;;;22.91;70.31
60258;BME280;46115;44.484;11.314;2022-07-29T01:33:45;100187.59;;;22.80;70.51
60258;BME280;46115;44.484;11.314;2022-07-29T01:37:55;100187.75;;;23.04;69.93
60258;BME280;46115;44.484;11.314;2022-07-29T01:42:07;100175.97;;;23.05;69.65
60258;BME280;46115;44.484;11.314;2022-07-29T01:46:14;100183.97;;;22.63;71.25
60258;BME280;46115;44.484;11.314;2022-07-29T01:50:25;100187.31;;;22.57;71.81
60258;BME280;46115;44.484;11.314;2022-07-29T01:54:32;100174.06;;;22.63;71.59
60258;BME280;46115;44.484;11.314;2022-07-29T01:58:39;100168.75;;;22.54;71.69
60258;BME280;46115;44.484;11.314;2022-07-29T02:02:46;100171.16;;;22.57;71.60
60258;BME280;46115;44.484;11.314;2022-07-29T02:06:53;100157.25;;;22.44;71.87
60258;BME280;46115;44.484;11.314;2022-07-29T02:10:57;100167.84;;;22.71;70.89
60258;BME280;46115;44.484;11.314;2022-07-29T02:15:03;100169.72;;;22.70;71.18
60258;BME280;46115;44.484;11.314;2022-07-29T02:19:08;100166.84;;;22.46;71.76
60258;BME280;46115;44.484;11.314;2022-07-29T02:23:15;100173.19;;;22.37;72.08
60258;BME280;46115;44.484;11.314;2022-07-29T02:27:20;100173.84;;;22.31;72.27
60258;BME280;46115;44.484;11.314;2022-07-29T02:31:27;100171.84;;;22.59;71.10
60258;BME280;46115;44.484;11.314;2022-07-29T02:35:33;100168.28;;;22.32;71.82
60258;BME280;46115;44.484;11.314;2022-07-29T02:39:37;100177.69;;;22.54;71.03
60258;BME280;46115;44.484;11.314;2022-07-29T02:43:42;100168.69;;;22.20;72.26
60258;BME280;46115;44.484;11.314;2022-07-29T02:47:47;100162.00;;;22.50;71.48
60258;BME280;46115;44.484;11.314;2022-07-29T02:51:57;100156.94;;;22.47;71.63
60258;BME280;46115;44.484;11.314;2022-07-29T02:56:03;100161.34;;;22.04;73.38
60258;BME280;46115;44.484;11.314;2022-07-29T03:00:10;100159.19;;;22.07;72.94
60258;BME280;46115;44.484;11.314;2022-07-29T03:04:14;100164.97;;;22.38;71.47
60258;BME280;46115;44.484;11.314;2022-07-29T03:08:19;100174.63;;;22.23;72.06
60258;BME280;46115;44.484;11.314;2022-07-29T03:12:22;100170.72;;;22.00;72.70
60258;BME280;46115;44.484;11.314;2022-07-29T03:16:25;100173.53;;;22.16;72.02
60258;BME280;46115;44.484;11.314;2022-07-29T03:20:27;100161.94;;;22.16;72.10
60258;BME280;46115;44.484;11.314;2022-07-29T03:24:33;100165.25;;;22.09;72.31
60258;BME280;46115;44.484;11.314;2022-07-29T03:28:35;100157.50;;;22.06;72.20
60258;BME280;46115;44.484;11.314;2022-07-29T03:32:38;100152.00;;;22.16;71.73
60258;BME280;46115;44.484;11.314;2022-07-29T03:36:41;100147.38;;;22.26;71.19
60258;BME280;46115;44.484;11.314;2022-07-29T03:40:49;100155.41;;;22.00;72.37
60258;BME280;46115;44.484;11.314;2022-07-29T03:44:54;100143.41;;;21.95;72.76
60258;BME280;46115;44.484;11.314;2022-07-29T03:49:00;100150.88;;;21.65;73.89
60258;BME280;46115;44.484;11.314;2022-07-29T03:53:03;100147.13;;;21.76;73.24
60258;BME280;46115;44.484;11.314;2022-07-29T03:57:09;100146.03;;;21.69;73.75
60258;BME280;46115;44.484;11.314;2022-07-29T04:01:12;100142.66;;;21.67;73.35
60258;BME280;46115;44.484;11.314;2022-07-29T04:05:17;100112.75;;;22.05;70.86
60258;BME280;46115;44.484;11.314;2022-07-29T04:09:19;100145.47;;;22.01;72.12
60258;BME280;46115;44.484;11.314;2022-07-29T04:13:23;100164.09;;;21.41;74.60
60258;BME280;46115;44.484;11.314;2022-07-29T04:17:26;100169.31;;;21.42;74.45
60258;BME280;46115;44.484;11.314;2022-07-29T04:21:28;100163.22;;;21.13;75.52
60258;BME280;46115;44.484;11.314;2022-07-29T04:25:31;100171.16;;;21.42;74.60
60258;BME280;46115;44.484;11.314;2022-07-29T04:29:35;100180.03;;;21.52;73.65
60258;BME280;46115;44.484;11.314;2022-07-29T04:33:37;100188.00;;;21.62;73.21
60258;BME280;46115;44.484;11.314;2022-07-29T04:37:40;100179.19;;;21.87;72.07
60258;BME280;46115;44.484;11.314;2022-07-29T04:41:42;100174.56;;;21.79;71.92
60258;BME280;46115;44.484;11.314;2022-07-29T04:45:46;100186.84;;;22.00;71.63
60258;BME280;46115;44.484;11.314;2022-07-29T04:49:49;100186.78;;;21.92;71.66
60258;BME280;46115;44.484;11.314;2022-07-29T04:53:51;100207.22;;;22.20;70.24
60258;BME280;46115;44.484;11.314;2022-07-29T04:57:54;100203.88;;;22.44;68.83
60258;BME280;46115;44.484;11.314;2022-07-29T05:01:57;100209.56;;;22.59;67.83
60258;BME280;46115;44.484;11.314;2022-07-29T05:06:00;100215.22;;;23.08;65.77
60258;BME280;46115;44.484;11.314;2022-07-29T05:10:03;100228.25;;;23.20;65.27
60258;BME280;46115;44.484;11.314;2022-07-29T05:14:06;100237.78;;;23.41;65.21
60258;BME280;46115;44.484;11.314;2022-07-29T05:18:10;100231.84;;;23.71;64.06
60258;BME280;46115;44.484;11.314;2022-07-29T05:22:12;100236.59;;;23.93;63.71
60258;BME280;46115;44.484;11.314;2022-07-29T05:26:15;100240.50;;;24.56;61.74
60258;BME280;46115;44.484;11.314;2022-07-29T05:30:17;100240.94;;;24.92;60.92
60258;BME280;46115;44.484;11.314;2022-07-29T05:34:24;100238.00;;;25.26;60.27
60258;BME280;46115;44.484;11.314;2022-07-29T05:38:27;100238.63;;;25.75;58.22
60258;BME280;46115;44.484;11.314;2022-07-29T05:42:30;100258.69;;;25.11;59.61
60258;BME280;46115;44.484;11.314;2022-07-29T05:46:32;100254.13;;;26.13;56.72
60258;BME280;46115;44.484;11.314;2022-07-29T05:50:36;100258.91;;;25.79;57.71
60258;BME280;46115;44.484;11.314;2022-07-29T05:54:38;100246.22;;;25.80;57.79
60258;BME280;46115;44.484;11.314;2022-07-29T05:58:41;100254.38;;;25.33;58.06
60258;BME280;46115;44.484;11.314;2022-07-29T06:02:44;100268.31;;;25.92;56.97
60258;BME280;46115;44.484;11.314;2022-07-29T06:06:48;100265.31;;;26.09;56.08
60258;BME280;46115;44.484;11.314;2022-07-29T06:10:51;100278.03;;;26.55;55.25
60258;BME280;46115;44.484;11.314;2022-07-29T06:14:53;100266.72;;;26.05;56.21
60258;BME280;46115;44.484;11.314;2022-07-29T06:18:56;100243.50;;;27.01;53.74
60258;BME280;46115;44.484;11.314;2022-07-29T06:23:00;100265.88;;;26.51;54.90
60258;BME280;46115;44.484;11.314;2022-07-29T06:27:05;100273.00;;;26.66;54.02
60258;BME280;46115;44.484;11.314;2022-07-29T06:31:08;100281.88;;;27.13;53.36
60258;BME280;46115;44.484;11.314;2022-07-29T06:35:10;100276.06;;;27.96;50.63
60258;BME280;46115;44.484;11.314;2022-07-29T06:39:14;100289.06;;;27.64;50.50
60258;BME280;46115;44.484;11.314;2022-07-29T06:43:16;100294.22;;;28.10;49.61
60258;BME280;46115;44.484;11.314;2022-07-29T06:47:19;100300.97;;;28.57;48.67
60258;BME280;46115;44.484;11.314;2022-07-29T06:51:22;100298.28;;;28.21;48.29
60258;BME280;46115;44.484;11.314;2022-07-29T06:55:26;100299.03;;;29.76;46.19
60258;BME280;46115;44.484;11.314;2022-07-29T06:59:28;100290.53;;;29.92;45.24
60258;BME280;46115;44.484;11.314;2022-07-29T07:03:31;100301.13;;;31.21;41.90
60258;BME280;46115;44.484;11.314;2022-07-29T07:07:34;100307.25;;;30.77;42.97
60258;BME280;46115;44.484;11.314;2022-07-29T07:11:38;100301.97;;;30.49;43.10
60258;BME280;46115;44.484;11.314;2022-07-29T07:15:41;100299.66;;;31.05;41.46
60258;BME280;46115;44.484;11.314;2022-07-29T07:19:43;100301.41;;;31.77;40.69
60258;BME280;46115;44.484;11.314;2022-07-29T07:23:46;100297.28;;;33.12;37.98
60258;BME280;46115;44.484;11.314;2022-07-29T07:27:50;100306.34;;;34.04;35.90
60258;BME280;46115;44.484;11.314;2022-07-29T07:31:52;100309.88;;;33.75;36.75
60258;BME280;46115;44.484;11.314;2022-07-29T07:35:56;100308.56;;;34.26;35.67
60258;BME280;46115;44.484;11.314;2022-07-29T07:39:58;100294.41;;;33.80;36.17
60258;BME280;46115;44.484;11.314;2022-07-29T07:44:03;100310.53;;;36.46;32.10
60258;BME280;46115;44.484;11.314;2022-07-29T07:48:06;100288.13;;;35.97;32.26
60258;BME280;46115;44.484;11.314;2022-07-29T07:52:11;100298.13;;;36.94;30.88
60258;BME280;46115;44.484;11.314;2022-07-29T07:56:13;100307.03;;;36.67;30.72
60258;BME280;46115;44.484;11.314;2022-07-29T08:00:18;100309.66;;;37.90;30.05
60258;BME280;46115;44.484;11.314;2022-07-29T08:04:21;100303.34;;;38.48;28.84
60258;BME280;46115;44.484;11.314;2022-07-29T08:08:23;100311.13;;;39.20;27.57
60258;BME280;46115;44.484;11.314;2022-07-29T08:12:27;100298.44;;;39.87;26.51
60258;BME280;46115;44.484;11.314;2022-07-29T08:16:31;100308.66;;;43.69;22.74
60258;BME280;46115;44.484;11.314;2022-07-29T08:20:34;100316.06;;;45.32;20.10
60258;BME280;46115;44.484;11.314;2022-07-29T08:24:36;100301.25;;;44.72;21.03
60258;BME280;46115;44.484;11.314;2022-07-29T08:28:45;100319.19;;;47.77;17.61
60258;BME280;46115;44.484;11.314;2022-07-29T08:32:52;100310.75;;;47.11;18.40
60258;BME280;46115;44.484;11.314;2022-07-29T08:36:55;100309.63;;;46.68;18.59
60258;BME280;46115;44.484;11.314;2022-07-29T08:40:58;100300.25;;;46.64;18.73
60258;BME280;46115;44.484;11.314;2022-07-29T08:45:00;100306.44;;;49.09;16.05
60258;BME280;46115;44.484;11.314;2022-07-29T08:49:05;100294.97;;;49.23;15.66
60258;BME280;46115;44.484;11.314;2022-07-29T08:53:11;100302.69;;;51.01;14.62
60258;BME280;46115;44.484;11.314;2022-07-29T08:57:14;100287.91;;;48.70;15.78
60258;BME280;46115;44.484;11.314;2022-07-29T09:01:22;100252.66;;;46.10;18.33
60258;BME280;46115;44.484;11.314;2022-07-29T09:05:28;100281.81;;;46.85;17.67
60258;BME280;46115;44.484;11.314;2022-07-29T09:09:30;100296.25;;;50.68;14.51
60258;BME280;46115;44.484;11.314;2022-07-29T09:13:34;100289.47;;;50.69;14.58
60258;BME280;46115;44.484;11.314;2022-07-29T09:17:40;100273.28;;;48.21;16.65
60258;BME280;46115;44.484;11.314;2022-07-29T09:21:45;100263.75;;;47.00;17.98
60258;BME280;46115;44.484;11.314;2022-07-29T09:26:05;100234.34;;;39.38;26.41
60258;BME280;46115;44.484;11.314;2022-07-29T09:30:10;100211.53;;;37.50;28.60
60258;BME280;46115;44.484;11.314;2022-07-29T09:34:14;100216.75;;;36.36;30.71
60258;BME280;46115;44.484;11.314;2022-07-29T09:38:19;100210.25;;;36.42;29.98
60258;BME280;46115;44.484;11.314;2022-07-29T09:42:28;100179.16;;;34.29;34.26
60258;BME280;46115;44.484;11.314;2022-07-29T09:46:33;100201.44;;;35.26;32.26
60258;BME280;46115;44.484;11.314;2022-07-29T09:50:38;100170.34;;;35.09;31.96
60258;BME280;46115;44.484;11.314;2022-07-29T09:54:42;100148.91;;;35.79;30.50
60258;BME280;46115;44.484;11.314;2022-07-29T09:58:45;100177.53;;;34.86;32.29
60258;BME280;46115;44.484;11.314;2022-07-29T10:02:47;100180.22;;;36.23;31.17
60258;BME280;46115;44.484;11.314;2022-07-29T10:06:57;100158.38;;;35.03;32.32
60258;BME280;46115;44.484;11.314;2022-07-29T10:11:10;100170.50;;;33.90;34.70
60258;BME280;46115;44.484;11.314;2022-07-29T10:15:15;100175.31;;;35.80;31.69
60258;BME280;46115;44.484;11.314;2022-07-29T10:19:17;100178.53;;;35.89;31.42
60258;BME280;46115;44.484;11.314;2022-07-29T10:23:20;100151.63;;;35.34;31.95
60258;BME280;46115;44.484;11.314;2022-07-29T10:27:24;100179.28;;;35.84;31.46
60258;BME280;46115;44.484;11.314;2022-07-29T10:31:30;100163.50;;;34.06;33.48
60258;BME280;46115;44.484;11.314;2022-07-29T10:35:58;100149.63;;;33.59;34.41
60258;BME280;46115;44.484;11.314;2022-07-29T10:40:13;100141.72;;;33.81;34.21
60258;BME280;46115;44.484;11.314;2022-07-29T10:44:42;100139.91;;;33.15;35.64
60258;BME280;46115;44.484;11.314;2022-07-29T10:49:04;100126.13;;;33.40;35.82
60258;BME280;46115;44.484;11.314;2022-07-29T10:53:07;100101.31;;;33.16;35.32
60258;BME280;46115;44.484;11.314;2022-07-29T10:57:14;100089.88;;;33.79;35.28
60258;BME280;46115;44.484;11.314;2022-07-29T11:01:30;100091.94;;;33.96;34.33
60258;BME280;46115;44.484;11.314;2022-07-29T11:05:54;100101.44;;;34.35;33.16
60258;BME280;46115;44.484;11.314;2022-07-29T11:10:22;100094.09;;;33.94;33.98
60258;BME280;46115;44.484;11.314;2022-07-29T11:19:21;100078.09;;;32.71;35.39
60258;BME280;46115;44.484;11.314;2022-07-29T11:23:26;100088.41;;;33.05;35.33
60258;BME280;46115;44.484;11.314;2022-07-29T11:27:31;100078.50;;;33.64;33.87
60258;BME280;46115;44.484;11.314;2022-07-29T11:31:41;100079.94;;;33.55;33.71
60258;BME280;46115;44.484;11.314;2022-07-29T11:36:09;100084.34;;;33.56;34.48
60258;BME280;46115;44.484;11.314;2022-07-29T11:40:16;100076.16;;;33.68;33.38
60258;BME280;46115;44.484;11.314;2022-07-29T11:44:55;100075.59;;;33.36;34.45
60258;BME280;46115;44.484;11.314;2022-07-29T11:48:59;100074.44;;;33.43;34.60
60258;BME280;46115;44.484;11.314;2022-07-29T11:53:11;100065.50;;;33.60;33.57
60258;BME280;46115;44.484;11.314;2022-07-29T11:57:16;100068.19;;;33.78;33.89
60258;BME280;46115;44.484;11.314;2022-07-29T12:01:19;100056.06;;;33.44;34.04
60258;BME280;46115;44.484;11.314;2022-07-29T12:05:37;100072.53;;;33.44;33.73
60258;BME280;46115;44.484;11.314;2022-07-29T12:09:49;100074.09;;;33.52;33.66
60258;BME280;46115;44.484;11.314;2022-07-29T12:13:52;100062.78;;;33.30;34.10
60258;BME280;46115;44.484;11.314;2022-07-29T12:17:55;100061.06;;;33.35;34.23
60258;BME280;46115;44.484;11.314;2022-07-29T12:21:57;100046.09;;;33.61;34.14
60258;BME280;46115;44.484;11.314;2022-07-29T12:26:03;100038.47;;;33.52;33.66
60258;BME280;46115;44.484;11.314;2022-07-29T12:30:08;100006.16;;;33.42;33.78
60258;BME280;46115;44.484;11.314;2022-07-29T12:34:12;100026.25;;;33.89;33.55
60258;BME280;46115;44.484;11.314;2022-07-29T12:38:15;100026.06;;;33.49;34.06
60258;BME280;46115;44.484;11.314;2022-07-29T12:42:19;100019.66;;;32.95;34.61
60258;BME280;46115;44.484;11.314;2022-07-29T12:46:22;100005.00;;;32.90;35.01
60258;BME280;46115;44.484;11.314;2022-07-29T12:50:26;99979.91;;;32.93;34.42
60258;BME280;46115;44.484;11.314;2022-07-29T12:54:29;99976.31;;;32.62;34.73
60258;BME280;46115;44.484;11.314;2022-07-29T12:58:35;100003.81;;;32.85;35.07
60258;BME280;46115;44.484;11.314;2022-07-29T13:02:39;100006.38;;;32.32;36.35
60258;BME280;46115;44.484;11.314;2022-07-29T13:06:43;100003.94;;;32.91;35.65
60258;BME280;46115;44.484;11.314;2022-07-29T13:10:46;100007.28;;;32.01;37.03
60258;BME280;46115;44.484;11.314;2022-07-29T13:14:50;99995.72;;;32.42;36.48
60258;BME280;46115;44.484;11.314;2022-07-29T13:19:09;99969.47;;;32.53;36.33
60258;BME280;46115;44.484;11.314;2022-07-29T13:23:12;99992.69;;;32.99;35.83
60258;BME280;46115;44.484;11.314;2022-07-29T13:27:18;99995.19;;;32.34;36.88
60258;BME280;46115;44.484;11.314;2022-07-29T13:31:22;99983.97;;;32.72;36.20
60258;BME280;46115;44.484;11.314;2022-07-29T13:35:25;99948.59;;;32.40;37.06
60258;BME280;46115;44.484;11.314;2022-07-29T13:39:30;99967.66;;;32.47;36.80
60258;BME280;46115;44.484;11.314;2022-07-29T13:43:33;99962.00;;;32.60;37.10
60258;BME280;46115;44.484;11.314;2022-07-29T13:47:37;99963.06;;;32.59;36.64
60258;BME280;46115;44.484;11.314;2022-07-29T13:51:40;99966.97;;;32.70;37.33
60258;BME280;46115;44.484;11.314;2022-07-29T13:55:42;99963.91;;;32.60;39.46
60258;BME280;46115;44.484;11.314;2022-07-29T13:59:45;99953.69;;;31.32;45.43
60258;BME280;46115;44.484;11.314;2022-07-29T14:03:48;99953.47;;;30.57;48.36
60258;BME280;46115;44.484;11.314;2022-07-29T14:07:51;99952.13;;;31.11;46.36
60258;BME280;46115;44.484;11.314;2022-07-29T14:11:54;99937.41;;;30.81;47.56
60258;BME280;46115;44.484;11.314;2022-07-29T14:15:57;99928.09;;;30.95;46.92
60258;BME280;46115;44.484;11.314;2022-07-29T14:20:01;99916.84;;;31.10;46.67
60258;BME280;46115;44.484;11.314;2022-07-29T14:24:03;99931.78;;;31.07;45.84
60258;BME280;46115;44.484;11.314;2022-07-29T14:28:06;99945.66;;;31.06;45.36
60258;BME280;46115;44.484;11.314;2022-07-29T14:32:09;99928.03;;;31.01;45.97
60258;BME280;46115;44.484;11.314;2022-07-29T14:36:13;99936.13;;;31.15;45.51
60258;BME280;46115;44.484;11.314;2022-07-29T14:40:16;99952.38;;;31.03;45.58
60258;BME280;46115;44.484;11.314;2022-07-29T14:44:18;99954.00;;;31.67;44.37
60258;BME280;46115;44.484;11.314;2022-07-29T14:48:21;99941.13;;;31.24;45.70
60258;BME280;46115;44.484;11.314;2022-07-29T14:52:25;99943.88;;;31.24;45.18
60258;BME280;46115;44.484;11.314;2022-07-29T14:56:27;99936.22;;;30.70;46.62
60258;BME280;46115;44.484;11.314;2022-07-29T15:00:31;99948.09;;;30.89;46.37
60258;BME280;46115;44.484;11.314;2022-07-29T15:04:34;99944.31;;;30.83;46.93
60258;BME280;46115;44.484;11.314;2022-07-29T15:08:38;99958.94;;;30.95;47.07
60258;BME280;46115;44.484;11.314;2022-07-29T15:12:41;99951.78;;;31.01;49.88
60258;BME280;46115;44.484;11.314;2022-07-29T15:16:44;99944.53;;;30.88;53.28
60258;BME280;46115;44.484;11.314;2022-07-29T15:20:46;99958.56;;;29.56;57.94
60258;BME280;46115;44.484;11.314;2022-07-29T15:24:50;99992.53;;;30.45;51.63
60258;BME280;46115;44.484;11.314;2022-07-29T15:28:53;99980.16;;;30.93;48.38
60258;BME280;46115;44.484;11.314;2022-07-29T15:32:56;99997.03;;;31.15;49.54
60258;BME280;46115;44.484;11.314;2022-07-29T15:36:59;100003.03;;;30.41;53.29
60258;BME280;46115;44.484;11.314;2022-07-29T15:41:03;99993.56;;;30.57;54.68
60258;BME280;46115;44.484;11.314;2022-07-29T15:45:06;99974.38;;;30.25;50.56
60258;BME280;46115;44.484;11.314;2022-07-29T15:49:09;99970.00;;;29.98;51.25
60258;BME280;46115;44.484;11.314;2022-07-29T15:53:11;99974.41;;;30.12;56.40
60258;BME280;46115;44.484;11.314;2022-07-29T15:57:15;99991.38;;;30.21;55.10
60258;BME280;46115;44.484;11.314;2022-07-29T16:01:18;99996.59;;;30.29;50.75
60258;BME280;46115;44.484;11.314;2022-07-29T16:05:20;100021.81;;;31.14;49.47
60258;BME280;46115;44.484;11.314;2022-07-29T16:09:23;100041.56;;;31.47;49.81
60258;BME280;46115;44.484;11.314;2022-07-29T16:13:27;100044.16;;;30.39;54.42
60258;BME280;46115;44.484;11.314;2022-07-29T16:17:29;100043.41;;;29.60;54.81
60258;BME280;46115;44.484;11.314;2022-07-29T16:21:32;100057.56;;;30.48;53.21
60258;BME280;46115;44.484;11.314;2022-07-29T16:25:35;100045.19;;;30.45;52.66
60258;BME280;46115;44.484;11.314;2022-07-29T16:29:39;100033.09;;;30.28;51.79
60258;BME280;46115;44.484;11.314;2022-07-29T16:33:41;100023.88;;;30.16;50.50
60258;BME280;46115;44.484;11.314;2022-07-29T16:37:44;100026.19;;;30.12;50.60
60258;BME280;46115;44.484;11.314;2022-07-29T16:41:46;100021.59;;;30.19;50.92
60258;BME280;46115;44.484;11.314;2022-07-29T16:45:50;100019.06;;;29.91;51.67
60258;BME280;46115;44.484;11.314;2022-07-29T16:49:53;100012.59;;;29.72;52.42
60258;BME280;46115;44.484;11.314;2022-07-29T16:53:55;99999.59;;;29.74;53.24
60258;BME280;46115;44.484;11.314;2022-07-29T16:57:58;99996.44;;;29.44;53.69
60258;BME280;46115;44.484;11.314;2022-07-29T17:02:01;100000.75;;;28.93;54.95
60258;BME280;46115;44.484;11.314;2022-07-29T17:06:04;99996.22;;;29.26;54.79
60258;BME280;46115;44.484;11.314;2022-07-29T17:10:08;99998.97;;;29.46;54.66
60258;BME280;46115;44.484;11.314;2022-07-29T17:14:10;99992.22;;;29.35;54.58
60258;BME280;46115;44.484;11.314;2022-07-29T17:18:14;99976.06;;;29.07;54.53
60258;BME280;46115;44.484;11.314;2022-07-29T17:22:17;99988.03;;;29.39;54.24
60258;BME280;46115;44.484;11.314;2022-07-29T17:26:20;99993.50;;;29.39;54.03
60258;BME280;46115;44.484;11.314;2022-07-29T17:30:22;99965.22;;;29.27;53.89
60258;BME280;46115;44.484;11.314;2022-07-29T17:34:26;100005.44;;;29.32;53.93
60258;BME280;46115;44.484;11.314;2022-07-29T17:38:28;100005.13;;;28.87;55.27
60258;BME280;46115;44.484;11.314;2022-07-29T17:42:31;100018.66;;;29.61;53.66
60258;BME280;46115;44.484;11.314;2022-07-29T17:46:33;100020.22;;;29.03;54.42
60258;BME280;46115;44.484;11.314;2022-07-29T17:50:37;100025.25;;;28.99;54.23
60258;BME280;46115;44.484;11.314;2022-07-29T17:54:40;100031.53;;;29.00;54.70
60258;BME280;46115;44.484;11.314;2022-07-29T17:58:42;99995.31;;;28.93;53.47
60258;BME280;46115;44.484;11.314;2022-07-29T18:02:47;100025.59;;;28.83;54.05
60258;BME280;46115;44.484;11.314;2022-07-29T18:06:51;100044.91;;;28.88;54.11
60258;BME280;46115;44.484;11.314;2022-07-29T18:10:54;100022.34;;;28.53;54.03
60258;BME280;46115;44.484;11.314;2022-07-29T18:14:56;100032.16;;;29.08;53.08
60258;BME280;46115;44.484;11.314;2022-07-29T18:18:59;100027.28;;;28.84;53.91
60258;BME280;46115;44.484;11.314;2022-07-29T18:23:03;100010.84;;;28.51;55.31
60258;BME280;46115;44.484;11.314;2022-07-29T18:27:06;100017.94;;;28.17;56.39
60258;BME280;46115;44.484;11.314;2022-07-29T18:31:08;100020.03;;;28.50;55.54
60258;BME280;46115;44.484;11.314;2022-07-29T18:35:11;100026.53;;;28.55;55.72
60258;BME280;46115;44.484;11.314;2022-07-29T18:39:15;100024.81;;;28.13;56.92
60258;BME280;46115;44.484;11.314;2022-07-29T18:43:17;100021.00;;;28.08;57.25
60258;BME280;46115;44.484;11.314;2022-07-29T18:47:20;99975.56;;;27.95;56.26
60258;BME280;46115;44.484;11.314;2022-07-29T18:51:22;100001.13;;;28.07;55.73
60258;BME280;46115;44.484;11.314;2022-07-29T18:55:26;100006.97;;;28.32;55.90
60258;BME280;46115;44.484;11.314;2022-07-29T18:59:29;100012.97;;;27.93;57.44
60258;BME280;46115;44.484;11.314;2022-07-29T19:03:31;100017.81;;;28.25;56.90
60258;BME280;46115;44.484;11.314;2022-07-29T19:07:34;100027.75;;;27.84;57.74
60258;BME280;46115;44.484;11.314;2022-07-29T19:11:39;100041.56;;;27.89;57.85
60258;BME280;46115;44.484;11.314;2022-07-29T19:15:42;100051.44;;;27.96;57.29
60258;BME280;46115;44.484;11.314;2022-07-29T19:19:45;100043.00;;;27.85;58.24
60258;BME280;46115;44.484;11.314;2022-07-29T19:23:48;100046.03;;;27.75;58.92
60258;BME280;46115;44.484;11.314;2022-07-29T19:27:52;100074.28;;;28.09;58.03
60258;BME280;46115;44.484;11.314;2022-07-29T19:31:55;100111.69;;;27.79;59.17
60258;BME280;46115;44.484;11.314;2022-07-29T22:06:09;100192.78;;;25.04;72.26
60258;BME280;46115;44.484;11.314;2022-07-29T22:10:11;100202.75;;;24.95;71.92
60258;BME280;46115;44.484;11.314;2022-07-29T22:14:14;100209.81;;;25.12;71.02
60258;BME280;46115;44.484;11.314;2022-07-29T22:18:18;100219.81;;;25.12;70.47
60258;BME280;46115;44.484;11.314;2022-07-29T22:22:22;100221.72;;;24.79;72.32
60258;BME280;46115;44.484;11.314;2022-07-29T22:26:24;100217.09;;;24.96;71.77
60258;BME280;46115;44.484;11.314;2022-07-29T22:30:27;100222.34;;;25.13;70.98
60258;BME280;46115;44.484;11.314;2022-07-29T22:34:29;100223.75;;;25.01;71.08
60258;BME280;46115;44.484;11.314;2022-07-29T22:38:33;100203.84;;;24.62;72.61
60258;BME280;46115;44.484;11.314;2022-07-29T22:42:35;100205.44;;;24.95;71.49
60258;BME280;46115;44.484;11.314;2022-07-29T22:46:38;100200.94;;;24.79;72.00
60258;BME280;46115;44.484;11.314;2022-07-29T22:50:40;100202.25;;;24.92;71.17
60258;BME280;46115;44.484;11.314;2022-07-29T22:54:44;100207.69;;;25.00;70.90
60258;BME280;46115;44.484;11.314;2022-07-29T22:58:47;100209.59;;;24.75;71.70
60258;BME280;46115;44.484;11.314;2022-07-29T23:02:49;100210.13;;;24.54;72.54
60258;BME280;46115;44.484;11.314;2022-07-29T23:06:52;100212.88;;;24.93;71.17
60258;BME280;46115;44.484;11.314;2022-07-29T23:10:56;100212.09;;;24.76;72.10
60258;BME280;46115;44.484;11.314;2022-07-29T23:14:58;100192.34;;;24.76;71.85
60258;BME280;46115;44.484;11.314;2022-07-29T23:19:01;100202.16;;;24.61;72.78
60258;BME280;46115;44.484;11.314;2022-07-29T23:23:04;100203.84;;;24.62;72.63
60258;BME280;46115;44.484;11.314;2022-07-29T23:27:08;100190.13;;;24.79;72.22
60258;BME280;46115;44.484;11.314;2022-07-29T23:31:10;100182.41;;;24.68;72.21
60258;BME280;46115;44.484;11.314;2022-07-29T23:35:13;100177.56;;;24.31;73.06
60258;BME280;46115;44.484;11.314;2022-07-29T23:39:16;100177.75;;;24.30;73.33
60258;BME280;46115;44.484;11.314;2022-07-29T23:43:20;100171.47;;;24.45;72.31